Lamar, Texas
Current Conditions -  °F | °C
As of 3:53 PM on Friday 31 Oct 2014 (Local Time) from KRKP Reporting Station
Clear Clear  
Wind Chill: 84°   Ceiling: Unl
Heat Index: 84°   Visibility: 10mi
Dew Point: 42°   Wind: 15mph
Humidity: 23%   Direction: 20°NNE
Pressure: 30.13"   Gusts: 20mph
Location:  28.2335°N, 96.9422°W
Report Text: KRKP 312053Z AUTO 02013G17KT 10SM CLR 29/06 A3013 RMK AO2 SLP203 T02890056 56022
Loading
Personal Weather Stations






























Interactive Weather Map
Tropical Storm Tracking
New forecast layout! Learn more

10-Day Weather Forecast

Advertisements
Track Severe Weather on mobile